createdAt,value
2024-05-09T00:00:47.535Z,101621.25
2024-05-09T00:03:35.602Z,101618.48
2024-05-09T00:06:04.386Z,101617.94
2024-05-09T00:08:32.567Z,101614.98
2024-05-09T00:11:00.836Z,101616.21
2024-05-09T00:13:28.911Z,101615.85
2024-05-09T00:15:56.965Z,101613.77
2024-05-09T00:18:25.004Z,101617.24
2024-05-09T00:20:53.151Z,101619.14
2024-05-09T00:23:21.486Z,101621.40
2024-05-09T00:25:49.421Z,101617.71
2024-05-09T00:28:17.330Z,101618.23
2024-05-09T00:30:45.180Z,101619.42
2024-05-09T00:33:13.321Z,101620.46
2024-05-09T00:35:41.777Z,101619.25
2024-05-09T00:38:11.081Z,101620.44
2024-05-09T00:40:41.955Z,101620.44
2024-05-09T00:43:12.864Z,101624.77
2024-05-09T00:45:41.918Z,101626.86
2024-05-09T00:48:13.971Z,101631.02
2024-05-09T00:50:45.098Z,101624.76
2024-05-09T00:53:14.947Z,101625.98
2024-05-09T00:55:43.626Z,101623.89
2024-05-09T00:58:14.734Z,101623.02
2024-05-09T01:00:43.438Z,101623.20
2024-05-09T01:03:13.508Z,101626.65
2024-05-09T01:05:43.931Z,101626.29
2024-05-09T01:08:12.877Z,101629.74
2024-05-09T01:10:44.104Z,101630.09
2024-05-09T01:13:14.109Z,101625.40
2024-05-09T01:15:42.489Z,101625.41
2024-05-09T01:18:12.399Z,101628.17
2024-05-09T01:20:44.198Z,101633.52
2024-05-09T01:23:15.742Z,101631.95
2024-05-09T01:25:46.314Z,101633.84
2024-05-09T01:28:15.234Z,101629.31
2024-05-09T01:30:43.611Z,101634.32
2024-05-09T01:33:12.606Z,101632.76
2024-05-09T01:35:42.526Z,101632.23
2024-05-09T01:38:17.356Z,101635.49
2024-05-09T01:40:47.014Z,101633.39
2024-05-09T01:43:16.162Z,101631.80
2024-05-09T01:45:44.320Z,101635.42
2024-05-09T01:48:12.444Z,101635.08
2024-05-09T01:50:42.780Z,101631.79
2024-05-09T01:53:14.179Z,101630.90
2024-05-09T01:55:43.420Z,101631.74
2024-05-09T01:58:11.527Z,101630.17
2024-05-09T02:00:42.424Z,101635.52
2024-05-09T02:03:15.912Z,101636.38
2024-05-09T02:05:49.457Z,101634.48
2024-05-09T02:08:22.018Z,101633.39
2024-05-09T02:10:50.770Z,101631.31
2024-05-09T02:13:19.104Z,101633.04
2024-05-09T02:15:47.096Z,101625.05
2024-05-09T02:18:15.241Z,101630.77
2024-05-09T02:20:44.059Z,101635.63
2024-05-09T02:23:13.851Z,101639.25
2024-05-09T02:25:42.110Z,101641.65
2024-05-09T02:28:10.083Z,101634.86
2024-05-09T02:30:40.972Z,101638.65
2024-05-09T02:33:12.459Z,101641.05
2024-05-09T02:35:43.752Z,101645.17
2024-05-09T02:38:13.059Z,101642.40
2024-05-09T02:40:41.402Z,101639.06
2024-05-09T02:43:12.640Z,101639.21
2024-05-09T02:45:41.609Z,101638.67
2024-05-09T02:48:13.853Z,101638.11
2024-05-09T02:50:44.263Z,101637.91
2024-05-09T02:53:13.504Z,101637.20
2024-05-09T02:55:42.311Z,101635.77
2024-05-09T02:58:11.076Z,101637.69
2024-05-09T03:00:41.963Z,101633.32
2024-05-09T03:03:13.807Z,101636.07
2024-05-09T03:05:45.170Z,101636.22
2024-05-09T03:08:13.937Z,101635.31
2024-05-09T03:10:42.829Z,101634.25
2024-05-09T03:13:14.165Z,101632.16
2024-05-09T03:15:44.596Z,101635.42
2024-05-09T03:18:13.418Z,101636.45
2024-05-09T03:20:44.177Z,101636.94
2024-05-09T03:23:12.697Z,101639.33
2024-05-09T03:25:40.756Z,101637.75
2024-05-09T03:28:08.713Z,101635.64
2024-05-09T03:30:41.716Z,101632.88
2024-05-09T03:33:17.434Z,101637.87
2024-05-09T03:35:47.672Z,101635.43
2024-05-09T03:38:15.971Z,101635.42
2024-05-09T03:40:45.617Z,101631.79
2024-05-09T03:43:13.977Z,101632.14
2024-05-09T03:45:50.278Z,101633.71
2024-05-09T03:48:18.413Z,101633.89
2024-05-09T03:50:47.276Z,101636.16
2024-05-09T03:53:15.764Z,101640.17
2024-05-09T03:55:43.791Z,101643.83
2024-05-09T03:58:14.403Z,101640.58
2024-05-09T04:00:43.158Z,101644.78
2024-05-09T04:03:12.809Z,101646.02
2024-05-09T04:05:42.939Z,101646.11
2024-05-09T04:08:15.283Z,101648.42
2024-05-09T04:10:44.126Z,101647.42
2024-05-09T04:13:12.134Z,101651.63
2024-05-09T04:15:40.162Z,101647.04
2024-05-09T04:18:08.301Z,101646.59
2024-05-09T04:20:39.664Z,101643.71
2024-05-09T04:23:13.833Z,101642.05
2024-05-09T04:25:44.382Z,101642.30
2024-05-09T04:28:13.499Z,101642.21
2024-05-09T04:30:42.377Z,101636.39
2024-05-09T04:33:13.134Z,101639.23
2024-05-09T04:35:43.625Z,101638.05
2024-05-09T04:38:13.453Z,101637.41
2024-05-09T04:40:41.881Z,101638.31
2024-05-09T04:43:18.685Z,101643.72
2024-05-09T04:45:46.892Z,101642.73
2024-05-09T04:48:16.661Z,101644.14
2024-05-09T04:50:45.135Z,101643.28
2024-05-09T04:53:16.082Z,101646.08
2024-05-09T04:55:44.272Z,101647.63
2024-05-09T04:58:12.558Z,101648.16
2024-05-09T05:00:41.613Z,101648.67
2024-05-09T05:03:14.493Z,101656.30
2024-05-09T05:05:46.227Z,101655.42
2024-05-09T05:08:16.457Z,101655.58
2024-05-09T05:10:45.814Z,101652.77
2024-05-09T05:13:22.368Z,101653.45
2024-05-09T05:15:53.600Z,101650.65
2024-05-09T05:18:22.387Z,101648.72
2024-05-09T05:20:50.678Z,101648.17
2024-05-09T05:23:20.258Z,101653.36
2024-05-09T05:25:51.102Z,101658.73
2024-05-09T05:28:19.524Z,101657.83
2024-05-09T05:30:47.548Z,101657.27
2024-05-09T05:33:18.405Z,101658.30
2024-05-09T05:35:46.900Z,101658.09
2024-05-09T05:38:15.027Z,101657.19
2024-05-09T05:40:43.040Z,101657.15
2024-05-09T05:43:16.894Z,101658.48
2024-05-09T05:45:45.609Z,101657.41
2024-05-09T05:48:17.111Z,101654.73
2024-05-09T05:50:45.805Z,101651.89
2024-05-09T05:53:14.274Z,101653.40
2024-05-09T05:55:42.523Z,101652.46
2024-05-09T05:58:11.508Z,101657.83
2024-05-09T06:00:41.216Z,101659.00
2024-05-09T06:03:11.005Z,101655.27
2024-05-09T06:05:46.904Z,101654.88
2024-05-09T06:08:15.361Z,101658.82
2024-05-09T06:10:43.751Z,101655.25
2024-05-09T06:13:12.999Z,101654.64
2024-05-09T06:15:42.054Z,101658.77
2024-05-09T06:18:11.701Z,101661.89
2024-05-09T06:20:42.648Z,101660.61
2024-05-09T06:23:12.416Z,101660.17
2024-05-09T06:25:42.589Z,101659.54
2024-05-09T06:28:11.514Z,101659.45
2024-05-09T06:30:42.152Z,101658.34
2024-05-09T06:33:13.922Z,101653.88
2024-05-09T06:35:44.927Z,101652.23
2024-05-09T06:38:13.554Z,101648.80
2024-05-09T06:40:43.676Z,101650.80
2024-05-09T06:43:13.764Z,101653.88
2024-05-09T06:45:42.111Z,101653.25
2024-05-09T06:48:10.496Z,101657.13
2024-05-09T06:50:40.220Z,101655.23
2024-05-09T06:53:09.390Z,101655.48
2024-05-09T06:55:37.933Z,101656.70
2024-05-09T06:58:07.054Z,101654.45
2024-05-09T07:00:39.597Z,101658.67
2024-05-09T07:03:11.610Z,101662.20
2024-05-09T07:05:40.901Z,101658.27
2024-05-09T07:08:09.021Z,101659.14
2024-05-09T07:10:37.303Z,101657.89
2024-05-09T07:13:10.032Z,101656.45
2024-05-09T07:15:38.519Z,101659.05
2024-05-09T07:18:20.087Z,101658.58
2024-05-09T07:20:49.841Z,101655.31
2024-05-09T07:23:19.019Z,101655.67
2024-05-09T07:25:47.522Z,101652.73
2024-05-09T07:28:19.680Z,101653.95
2024-05-09T07:30:47.983Z,101650.60
2024-05-09T07:33:21.516Z,101650.89
2024-05-09T07:35:51.139Z,101650.47
2024-05-09T07:38:19.275Z,101653.72
2024-05-09T07:40:47.434Z,101653.97
2024-05-09T07:43:15.993Z,101653.55
2024-05-09T07:45:51.889Z,101652.16
2024-05-09T07:53:39.941Z,101645.77
2024-05-09T07:56:13.942Z,101638.83
2024-05-09T07:58:43.699Z,101637.27
2024-05-09T08:01:11.726Z,101629.17
2024-05-09T08:03:40.050Z,101626.77
2024-05-09T08:06:08.215Z,101626.34
2024-05-09T08:08:35.982Z,101623.23
2024-05-09T08:11:04.010Z,101621.16
2024-05-09T08:13:32.123Z,101624.66
2024-05-09T08:16:01.126Z,101624.88
2024-05-09T08:18:29.395Z,101625.92
2024-05-09T08:20:58.091Z,101626.33
2024-05-09T08:23:25.953Z,101621.98
2024-05-09T08:25:53.804Z,101623.40
2024-05-09T08:28:21.675Z,101620.38
2024-05-09T08:30:50.047Z,101620.31
2024-05-09T08:33:18.237Z,101620.89
2024-05-09T08:35:46.400Z,101618.75
2024-05-09T08:38:14.318Z,101615.98
2024-05-09T08:40:42.474Z,101612.30
2024-05-09T08:43:12.021Z,101614.08
2024-05-09T08:45:44.199Z,101616.84
2024-05-09T08:48:15.494Z,101615.23
2024-05-09T08:50:45.539Z,101615.77
2024-05-09T08:53:16.915Z,101603.14
2024-05-09T08:55:49.388Z,101603.35
2024-05-09T08:58:20.613Z,101600.58
2024-05-09T09:00:49.508Z,101595.81
2024-05-09T09:03:19.608Z,101598.96
2024-05-09T09:05:58.868Z,101595.60
2024-05-09T09:08:26.840Z,101599.73
2024-05-09T09:10:58.086Z,101593.96
2024-05-09T09:13:26.769Z,101593.77
2024-05-09T09:15:58.463Z,101595.09
2024-05-09T09:18:27.782Z,101597.84
2024-05-09T09:20:56.192Z,101596.83
2024-05-09T09:23:24.062Z,101593.58
2024-05-09T09:25:52.136Z,101590.69
2024-05-09T09:28:23.128Z,101589.77
2024-05-09T09:30:51.266Z,101592.02
2024-05-09T09:33:19.614Z,101594.69
2024-05-09T09:35:47.591Z,101591.41
2024-05-09T09:38:18.150Z,101588.34
2024-05-09T09:40:49.705Z,101591.52
2024-05-09T09:43:20.069Z,101591.65
2024-05-09T09:45:53.152Z,101594.35
2024-05-09T09:48:22.752Z,101599.06
2024-05-09T09:50:51.910Z,101587.62
2024-05-09T09:53:20.393Z,101584.64
2024-05-09T09:55:48.744Z,101592.55
2024-05-09T09:58:17.646Z,101590.40
2024-05-09T10:00:45.952Z,101588.93
2024-05-09T10:03:14.162Z,101592.00
2024-05-09T10:05:45.345Z,101589.73
2024-05-09T10:08:16.073Z,101585.33
2024-05-09T10:10:47.319Z,101581.09
2024-05-09T10:13:16.203Z,101578.86
2024-05-09T10:15:46.371Z,101575.19
2024-05-09T10:18:15.261Z,101572.39
2024-05-09T10:20:44.775Z,101572.04
2024-05-09T10:23:44.245Z,101571.46
2024-05-09T10:26:12.069Z,101574.17
2024-05-09T10:28:44.314Z,101569.33
2024-05-09T10:31:13.875Z,101563.80
2024-05-09T10:33:48.151Z,101557.70
2024-05-09T10:36:20.946Z,101553.02
2024-05-09T10:38:49.845Z,101546.64
2024-05-09T10:41:18.823Z,101548.45
2024-05-09T10:43:47.768Z,101547.00
2024-05-09T10:46:16.156Z,101551.63
2024-05-09T10:48:45.131Z,101550.70
2024-05-09T10:51:13.581Z,101537.94
2024-05-09T10:53:42.818Z,101539.03
2024-05-09T10:56:11.441Z,101547.49
2024-05-09T10:58:39.301Z,101546.90
2024-05-09T11:01:08.875Z,101547.27
2024-05-09T11:03:38.174Z,101537.35
2024-05-09T11:06:07.304Z,101531.76
2024-05-09T11:08:36.084Z,101528.84
2024-05-09T11:11:07.464Z,101531.47
2024-05-09T11:13:38.252Z,101524.09
2024-05-09T11:16:19.293Z,101516.78
2024-05-09T11:18:55.968Z,101518.78
2024-05-09T11:21:25.045Z,101519.05
2024-05-09T11:23:53.278Z,101518.95
2024-05-09T11:26:25.501Z,101516.04
2024-05-09T11:28:53.531Z,101511.24
2024-05-09T11:31:21.980Z,101510.02
2024-05-09T11:33:50.471Z,101509.50
2024-05-09T11:36:18.449Z,101500.94
2024-05-09T11:38:46.310Z,101504.45
2024-05-09T11:41:18.796Z,101502.04
2024-05-09T11:43:47.021Z,101500.20
2024-05-09T11:46:15.256Z,101506.27
2024-05-09T11:48:43.653Z,101506.80
2024-05-09T11:51:11.783Z,101511.16
2024-05-09T11:53:39.654Z,101511.35
2024-05-09T11:56:07.628Z,101510.60
2024-05-09T11:58:36.972Z,101507.58
2024-05-09T12:01:05.437Z,101501.84
2024-05-09T12:03:35.225Z,101497.02
2024-05-09T12:06:04.218Z,101490.48
2024-05-09T12:08:32.376Z,101489.52
2024-05-09T12:11:00.473Z,101486.11
2024-05-09T12:13:28.790Z,101487.34
2024-05-09T12:15:56.869Z,101483.30
2024-05-09T12:18:24.795Z,101478.58
2024-05-09T12:20:52.740Z,101479.83
2024-05-09T12:23:20.585Z,101483.30
2024-05-09T12:25:48.455Z,101485.59
2024-05-09T12:28:16.583Z,101483.56
2024-05-09T12:30:44.758Z,101477.56
2024-05-09T12:33:13.914Z,101472.18
2024-05-09T12:35:44.520Z,101473.77
2024-05-09T12:38:15.382Z,101473.69
2024-05-09T12:40:43.757Z,101470.20
2024-05-09T12:43:12.175Z,101475.97
2024-05-09T12:45:40.656Z,101474.96
2024-05-09T12:48:12.317Z,101474.27
2024-05-09T12:50:41.546Z,101467.73
2024-05-09T12:53:09.985Z,101468.44
2024-05-09T12:55:45.037Z,101461.58
2024-05-09T12:58:23.752Z,101455.27
2024-05-09T13:00:52.581Z,101455.48
2024-05-09T13:03:21.898Z,101450.14
2024-05-09T13:05:50.880Z,101451.59
2024-05-09T13:08:19.539Z,101448.40
2024-05-09T13:10:48.104Z,101441.02
2024-05-09T13:13:16.616Z,101438.38
2024-05-09T13:15:44.852Z,101438.55
2024-05-09T13:18:12.798Z,101437.31
2024-05-09T13:20:40.727Z,101436.05
2024-05-09T13:23:08.914Z,101434.36
2024-05-09T13:25:38.349Z,101427.48
2024-05-09T13:28:07.678Z,101424.50
2024-05-09T13:30:40.471Z,101422.98
2024-05-09T13:33:12.049Z,101416.00
2024-05-09T13:35:47.657Z,101411.71
2024-05-09T13:38:19.803Z,101412.05
2024-05-09T13:40:48.406Z,101411.41
2024-05-09T13:43:17.795Z,101409.41
2024-05-09T13:45:46.567Z,101402.21
2024-05-09T13:48:14.720Z,101400.02
2024-05-09T13:50:42.755Z,101399.70
2024-05-09T13:53:10.728Z,101399.06
2024-05-09T13:55:39.716Z,101396.17
2024-05-09T13:58:09.140Z,101392.04
2024-05-09T14:00:45.248Z,101387.64
2024-05-09T14:03:18.916Z,101383.20
2024-05-09T14:05:50.877Z,101380.98
2024-05-09T14:08:22.245Z,101378.83
2024-05-09T14:10:51.059Z,101373.30
2024-05-09T14:13:19.936Z,101373.30
2024-05-09T14:15:48.310Z,101370.40
2024-05-09T14:18:16.655Z,101367.73
2024-05-09T14:20:44.576Z,101368.58
2024-05-09T14:23:12.638Z,101366.95
2024-05-09T14:25:42.615Z,101364.09
2024-05-09T14:28:13.092Z,101362.71
2024-05-09T14:30:42.659Z,101361.34
2024-05-09T14:33:11.620Z,101358.30
2024-05-09T14:35:39.785Z,101353.00
2024-05-09T14:38:08.743Z,101356.07
2024-05-09T14:40:42.235Z,101349.33
2024-05-09T14:43:13.671Z,101347.29
2024-05-09T14:45:43.337Z,101341.59
2024-05-09T14:48:14.134Z,101337.63
2024-05-09T14:50:42.487Z,101336.98
2024-05-09T14:53:11.960Z,101340.16
2024-05-09T14:55:41.851Z,101333.70
2024-05-09T14:58:12.114Z,101329.39
2024-05-09T15:00:46.233Z,101325.29
2024-05-09T15:03:19.719Z,101322.38
2024-05-09T15:05:48.625Z,101316.54
2024-05-09T15:08:18.112Z,101313.52
2024-05-09T15:10:47.130Z,101317.38
2024-05-09T15:13:16.863Z,101318.11
2024-05-09T15:15:45.559Z,101320.67
2024-05-09T15:18:14.602Z,101314.64
2024-05-09T15:20:43.891Z,101315.63
2024-05-09T15:23:11.991Z,101312.80
2024-05-09T15:25:40.427Z,101307.77
2024-05-09T15:28:08.841Z,101306.20
2024-05-09T15:30:37.609Z,101307.73
2024-05-09T15:33:07.085Z,101302.27
2024-05-09T15:35:36.281Z,101298.82
2024-05-09T15:38:04.911Z,101296.67
2024-05-09T15:40:39.541Z,101294.45
2024-05-09T15:43:10.932Z,101291.20
2024-05-09T15:45:41.112Z,101290.63
2024-05-09T15:48:10.735Z,101284.84
2024-05-09T15:50:41.672Z,101286.90
2024-05-09T15:53:12.461Z,101283.33
2024-05-09T15:55:42.550Z,101283.83
2024-05-09T15:58:11.303Z,101284.80
2024-05-09T16:00:42.378Z,101283.38
2024-05-09T16:03:13.972Z,101278.14
2024-05-09T16:05:44.823Z,101276.34
2024-05-09T16:08:13.631Z,101270.19
2024-05-09T16:10:48.014Z,101269.56
2024-05-09T16:13:17.186Z,101269.52
2024-05-09T16:15:46.212Z,101269.02
2024-05-09T16:18:14.462Z,101267.08
2024-05-09T16:20:44.739Z,101263.77
2024-05-09T16:23:14.317Z,101263.49
2024-05-09T16:25:47.806Z,101259.42
2024-05-09T16:28:16.739Z,101261.17
2024-05-09T16:30:44.817Z,101261.74
2024-05-09T16:33:13.119Z,101260.66
2024-05-09T16:35:41.123Z,101256.61
2024-05-09T16:38:09.033Z,101256.73
2024-05-09T16:40:40.422Z,101254.08
2024-05-09T16:43:11.144Z,101256.39
2024-05-09T16:45:41.082Z,101254.29
2024-05-09T16:48:09.203Z,101254.45
2024-05-09T16:50:37.655Z,101259.19
2024-05-09T16:53:06.665Z,101256.99
2024-05-09T16:55:36.105Z,101261.21
2024-05-09T16:58:06.363Z,101258.25
2024-05-09T17:00:40.845Z,101257.13
2024-05-09T17:03:14.807Z,101258.16
2024-05-09T17:05:46.768Z,101259.80
2024-05-09T17:08:18.058Z,101253.96
2024-05-09T17:10:48.670Z,101253.23
2024-05-09T17:13:17.541Z,101256.41
2024-05-09T17:15:45.825Z,101257.70
2024-05-09T17:18:14.221Z,101256.81
2024-05-09T17:20:42.225Z,101254.19
2024-05-09T17:23:13.656Z,101257.33
2024-05-09T17:25:42.766Z,101260.09
2024-05-09T17:28:11.228Z,101262.31
2024-05-09T17:30:41.970Z,101259.20
2024-05-09T17:33:12.478Z,101257.38
2024-05-09T17:35:41.186Z,101261.15
2024-05-09T17:38:09.586Z,101262.06
2024-05-09T17:40:38.658Z,101261.80
2024-05-09T17:43:09.516Z,101261.98
2024-05-09T17:45:40.793Z,101263.13
2024-05-09T17:48:11.185Z,101264.20
2024-05-09T17:50:40.511Z,101262.88
2024-05-09T17:53:10.339Z,101267.91
2024-05-09T17:55:39.439Z,101268.45
2024-05-09T17:58:07.967Z,101266.04
2024-05-09T18:00:39.728Z,101268.46
2024-05-09T18:03:12.210Z,101262.05
2024-05-09T18:05:43.671Z,101267.13
2024-05-09T18:08:12.904Z,101268.66
2024-05-09T18:10:41.858Z,101269.24
2024-05-09T18:13:11.516Z,101270.77
2024-05-09T18:15:40.830Z,101274.64
2024-05-09T18:18:10.812Z,101276.70
2024-05-09T18:20:43.936Z,101275.06
2024-05-09T18:23:16.478Z,101275.70
2024-05-09T18:25:47.787Z,101276.13
2024-05-09T18:28:17.062Z,101276.74
2024-05-09T18:30:45.677Z,101278.52
2024-05-09T18:33:14.173Z,101278.55
2024-05-09T18:35:44.032Z,101284.35
2024-05-09T18:38:12.161Z,101289.58
2024-05-09T18:40:42.004Z,101289.27
2024-05-09T18:43:11.922Z,101293.56
2024-05-09T18:45:40.285Z,101296.89
2024-05-09T18:48:10.040Z,101297.57
2024-05-09T18:50:40.583Z,101298.25
2024-05-09T18:53:11.349Z,101295.94
2024-05-09T18:55:41.478Z,101298.83
2024-05-09T18:58:09.556Z,101302.37
2024-05-09T19:00:40.273Z,101300.11
2024-05-09T19:03:13.260Z,101299.31
2024-05-09T19:05:44.269Z,101303.53
2024-05-09T19:08:14.679Z,101304.92
2024-05-09T19:10:43.603Z,101309.23
2024-05-09T19:13:13.576Z,101306.73
2024-05-09T19:15:43.456Z,101313.67
2024-05-09T19:18:13.929Z,101317.45
2024-05-09T19:20:43.450Z,101317.15
2024-05-09T19:23:12.309Z,101317.36
2024-05-09T19:25:40.359Z,101315.30
2024-05-09T19:28:08.619Z,101312.71
2024-05-09T19:30:40.895Z,101314.07
2024-05-09T19:33:13.106Z,101314.63
2024-05-09T19:35:43.119Z,101316.74
2024-05-09T19:38:12.142Z,101318.34
2024-05-09T19:40:40.997Z,101319.72
2024-05-09T19:43:09.324Z,101319.36
2024-05-09T19:45:37.546Z,101320.73
2024-05-09T19:48:06.707Z,101323.49
2024-05-09T19:50:41.644Z,101323.63
2024-05-09T19:53:14.221Z,101327.05
2024-05-09T19:55:43.102Z,101329.98
2024-05-09T19:58:12.470Z,101329.58
2024-05-09T20:00:43.507Z,101328.45
2024-05-09T20:03:14.832Z,101328.92
2024-05-09T20:05:45.283Z,101325.00
2024-05-09T20:08:13.793Z,101328.20
2024-05-09T20:10:41.772Z,101330.92
2024-05-09T20:13:09.891Z,101330.80
2024-05-09T20:15:38.267Z,101334.54
2024-05-09T20:18:07.369Z,101329.53
2024-05-09T20:20:40.054Z,101332.02
2024-05-09T20:23:12.308Z,101335.23
2024-05-09T20:25:41.642Z,101334.94
2024-05-09T20:28:10.523Z,101335.90
2024-05-09T20:30:38.828Z,101333.36
2024-05-09T20:33:08.425Z,101335.52
2024-05-09T20:35:37.628Z,101333.52
2024-05-09T20:38:05.932Z,101329.39
2024-05-09T20:40:37.726Z,101329.80
2024-05-09T20:43:09.277Z,101330.92
2024-05-09T20:45:37.808Z,101330.45
2024-05-09T20:48:07.112Z,101328.97
2024-05-09T20:50:39.620Z,101330.95
2024-05-09T20:53:14.719Z,101330.13
2024-05-09T20:55:44.746Z,101330.85
2024-05-09T20:58:13.728Z,101331.45
2024-05-09T21:00:44.544Z,101328.53
2024-05-09T21:03:16.640Z,101326.84
2024-05-09T21:05:47.261Z,101327.22
2024-05-09T21:08:15.940Z,101326.05
2024-05-09T21:10:44.181Z,101326.46
2024-05-09T21:13:12.443Z,101330.48
2024-05-09T21:15:40.553Z,101330.52
2024-05-09T21:18:08.846Z,101331.09
2024-05-09T21:20:37.729Z,101331.64
2024-05-09T21:23:05.972Z,101328.37
2024-05-09T21:25:34.079Z,101327.04
2024-05-09T21:28:03.426Z,101323.05
2024-05-09T21:30:40.149Z,101325.70
2024-05-09T21:33:13.636Z,101324.36
2024-05-09T21:35:43.425Z,101326.30
2024-05-09T21:38:14.124Z,101323.71
2024-05-09T21:40:43.361Z,101325.87
2024-05-09T21:43:11.669Z,101327.64
2024-05-09T21:45:39.679Z,101326.27
2024-05-09T21:48:08.437Z,101330.14
2024-05-09T21:50:40.911Z,101331.23
2024-05-09T21:53:11.892Z,101332.13
2024-05-09T21:55:41.813Z,101328.84
2024-05-09T21:58:10.568Z,101328.53
2024-05-09T22:00:40.287Z,101328.04
2024-05-09T22:03:10.096Z,101331.36
2024-05-09T22:05:42.137Z,101330.35
2024-05-09T22:08:11.159Z,101331.44
2024-05-09T22:10:39.230Z,101329.35
2024-05-09T22:13:08.405Z,101334.55
2024-05-09T22:15:39.190Z,101335.61
2024-05-09T22:18:10.382Z,101335.80
2024-05-09T22:20:47.095Z,101333.04
2024-05-09T22:23:15.996Z,101329.95
2024-05-09T22:25:44.488Z,101326.30
2024-05-09T22:28:16.254Z,101331.87
2024-05-09T22:30:46.215Z,101330.98
2024-05-09T22:33:15.359Z,101327.69
2024-05-09T22:35:43.504Z,101327.36
2024-05-09T22:38:11.454Z,101323.39
2024-05-09T22:40:46.983Z,101325.65
2024-05-09T22:43:23.824Z,101325.61
2024-05-09T22:45:56.793Z,101321.13
2024-05-09T22:48:25.655Z,101321.88
2024-05-09T22:50:54.829Z,101319.14
2024-05-09T22:53:24.752Z,101320.20
2024-05-09T22:55:53.035Z,101317.61
2024-05-09T22:58:21.570Z,101318.15
2024-05-09T23:00:49.804Z,101313.16
2024-05-09T23:03:21.488Z,101312.83
2024-05-09T23:05:50.443Z,101313.90
2024-05-09T23:08:18.411Z,101311.67
2024-05-09T23:10:46.405Z,101311.17
2024-05-09T23:13:14.442Z,101311.37
2024-05-09T23:15:42.831Z,101311.20
2024-05-09T23:18:11.369Z,101304.46
2024-05-09T23:20:40.279Z,101304.14
2024-05-09T23:23:10.353Z,101302.08
2024-05-09T23:25:43.391Z,101303.29
2024-05-09T23:28:11.708Z,101299.48
2024-05-09T23:30:41.209Z,101302.80
2024-05-09T23:33:14.879Z,101304.89
2024-05-09T23:35:44.451Z,101302.81
2024-05-09T23:38:13.345Z,101302.83
2024-05-09T23:40:42.647Z,101299.73
2024-05-09T23:43:12.520Z,101297.30
2024-05-09T23:45:42.039Z,101296.96
2024-05-09T23:48:10.904Z,101293.84
2024-05-09T23:50:40.474Z,101295.59
2024-05-09T23:53:10.156Z,101290.19
2024-05-09T23:55:39.417Z,101288.45
2024-05-09T23:58:09.459Z,101289.50
